84VA weather

Cia Headquarters Heliport
Langley, Virginia, United States

Public forecast

Using degrees Fahrenheit for public forecast. Weather courtesy of forecast.io.

Closest aviation weather report (METAR) to Cia Headquarters Heliport

Closest report is Ronald Reagan Washington National Airport, 8.1 nm (15.0 km) SE. Retrieved 2020/06/02 00:52 UTC (2 hours ago):

KDCA 020052Z 20008KT 10SM FEW095 BKN250 20/06 A3016 RMK AO2 SLP214 T02000056

Closest aviation forecast (TAF) to Cia Headquarters Heliport

Closest forecast is Ronald Reagan Washington National Airport, 8.1 nm (15.0 km) SE. Retrieved 2020-06-02 00:22 UTC (2 hours ago):

TAF KDCA 012320Z 0200/0306 28004KT P6SM FEW200 FM021000 23004KT P6SM BKN200 FM022000 20008KT P6SM BKN090 FM022300 18007KT P6SM SCT080 FM030400 21005KT P6SM SCT060